To NAV CANADA Home Page Login to a new session Search on AWWS site Feedback and Comments Disclaimer Vers la page française équivalente Tips FAQ What's new on the site To the Forecasts and Observations / NOTAM section To "File a Flight Plan" website Publications and other links Update of the User's profile FIC Telephone Numbers My Weather Data Folder Route Weather Data Regional Weather Data Local Weather Data To the Forecasts and Observations / NOTAM section
Request Generated 08/31/2015 at 17:43:48 UTC . Weather information available at that time is displayed.

METAR/TAF

OLD CROW/YT    

METAR CYOC 311700Z 00000KT 2 1/4SM -SN OVC015 01/00 A2955 RMK SN3SC5
SLP023=
SPECI CYOC 311632Z VRB02KT 2SM -SN OVC015 00/M00 A2954 RMK SN4ST4 SN
WET SLP018=
METAR CYOC 311600Z 00000KT 1 1/4SM -SN OVC014 00/M00 A2953 RMK SN5ST3
SN WET SLP016=
METAR CYOC 311500Z 05002KT 1 1/4SM -SN OVC014 00/M00 A2951 RMK SN5ST3
SN WET SLP009=

TAF CYOC 311738Z 3118/0101 VRB03KT 1SM -SN OVC010 TEMPO 3118/3121 3SM
-SN OVC012
FM312100 34008KT 5SM -SHRASN BR FEW008 BKN020 OVC030 TEMPO
3121/0101 P6SM -SHRA SCT020 BKN030
RMK NXT FCST WILL BE ISSUED AT 011445Z=
Your time UTC time
Weather data provided by Environment Canada and NAV CANADA